sensor_id;sensor_type;location;lat;lon;timestamp;P1;durP1;ratioP1;P2;durP2;ratioP2
70010;SDS011;59543;37.950;-122.338;2022-09-24T00:01:30;10.75;;;2.92;;
70010;SDS011;59543;37.950;-122.338;2022-09-24T00:04:08;11.00;;;2.97;;
70010;SDS011;59543;37.950;-122.338;2022-09-24T00:06:37;17.35;;;2.90;;
70010;SDS011;59543;37.950;-122.338;2022-09-24T00:09:22;11.27;;;3.05;;
70010;SDS011;59543;37.950;-122.338;2022-09-24T00:11:48;12.73;;;2.90;;
70010;SDS011;59543;37.950;-122.338;2022-09-24T00:14:16;23.88;;;3.60;;
70010;SDS011;59543;37.950;-122.338;2022-09-24T00:16:43;10.63;;;2.90;;
70010;SDS011;59543;37.950;-122.338;2022-09-24T00:19:10;11.45;;;3.17;;
70010;SDS011;59543;37.950;-122.338;2022-09-24T00:21:38;16.17;;;3.63;;
70010;SDS011;59543;37.950;-122.338;2022-09-24T00:24:12;16.40;;;3.42;;
70010;SDS011;59543;37.950;-122.338;2022-09-24T00:27:00;10.32;;;3.30;;
70010;SDS011;59543;37.950;-122.338;2022-09-24T00:29:27;13.02;;;3.38;;
70010;SDS011;59543;37.950;-122.338;2022-09-24T00:31:57;18.98;;;3.80;;
70010;SDS011;59543;37.950;-122.338;2022-09-24T00:34:23;10.38;;;3.08;;
70010;SDS011;59543;37.950;-122.338;2022-09-24T00:36:49;14.50;;;3.35;;
70010;SDS011;59543;37.950;-122.338;2022-09-24T00:39:17;12.93;;;3.00;;
70010;SDS011;59543;37.950;-122.338;2022-09-24T00:41:44;11.60;;;3.20;;
70010;SDS011;59543;37.950;-122.338;2022-09-24T00:49:35;12.75;;;3.28;;
70010;SDS011;59543;37.950;-122.338;2022-09-24T00:52:03;10.77;;;3.00;;
70010;SDS011;59543;37.950;-122.338;2022-09-24T00:54:30;18.70;;;3.67;;
70010;SDS011;59543;37.950;-122.338;2022-09-24T00:56:56;13.10;;;3.25;;
70010;SDS011;59543;37.950;-122.338;2022-09-24T00:59:24;14.95;;;2.92;;
70010;SDS011;59543;37.950;-122.338;2022-09-24T01:01:52;14.13;;;3.13;;
70010;SDS011;59543;37.950;-122.338;2022-09-24T01:04:21;17.27;;;2.97;;
70010;SDS011;59543;37.950;-122.338;2022-09-24T01:06:49;12.85;;;3.05;;
70010;SDS011;59543;37.950;-122.338;2022-09-24T01:09:17;18.10;;;3.45;;
70010;SDS011;59543;37.950;-122.338;2022-09-24T01:11:53;20.75;;;3.90;;
70010;SDS011;59543;37.950;-122.338;2022-09-24T01:25:41;17.55;;;3.40;;
70010;SDS011;59543;37.950;-122.338;2022-09-24T01:28:17;10.82;;;3.58;;
70010;SDS011;59543;37.950;-122.338;2022-09-24T01:30:53;19.15;;;3.95;;
70010;SDS011;59543;37.950;-122.338;2022-09-24T01:33:25;20.20;;;3.58;;
70010;SDS011;59543;37.950;-122.338;2022-09-24T01:35:57;13.95;;;3.75;;
70010;SDS011;59543;37.950;-122.338;2022-09-24T01:38:31;18.38;;;3.65;;
70010;SDS011;59543;37.950;-122.338;2022-09-24T01:41:02;17.83;;;4.25;;
70010;SDS011;59543;37.950;-122.338;2022-09-24T01:43:32;18.45;;;3.58;;
70010;SDS011;59543;37.950;-122.338;2022-09-24T01:45:59;49.63;;;5.75;;
70010;SDS011;59543;37.950;-122.338;2022-09-24T01:48:39;24.10;;;4.35;;
70010;SDS011;59543;37.950;-122.338;2022-09-24T01:51:11;16.03;;;4.30;;
70010;SDS011;59543;37.950;-122.338;2022-09-24T01:53:41;24.35;;;5.10;;
70010;SDS011;59543;37.950;-122.338;2022-09-24T01:56:16;21.70;;;4.32;;
70010;SDS011;59543;37.950;-122.338;2022-09-24T02:02:10;17.90;;;5.13;;
70010;SDS011;59543;37.950;-122.338;2022-09-24T02:04:40;20.05;;;5.15;;
70010;SDS011;59543;37.950;-122.338;2022-09-24T02:07:14;17.10;;;4.63;;
70010;SDS011;59543;37.950;-122.338;2022-09-24T02:09:46;20.35;;;4.88;;
70010;SDS011;59543;37.950;-122.338;2022-09-24T02:12:16;20.55;;;4.72;;
70010;SDS011;59543;37.950;-122.338;2022-09-24T02:14:53;20.88;;;5.13;;
70010;SDS011;59543;37.950;-122.338;2022-09-24T02:17:28;19.63;;;5.28;;
70010;SDS011;59543;37.950;-122.338;2022-09-24T02:19:57;23.10;;;5.85;;
70010;SDS011;59543;37.950;-122.338;2022-09-24T02:22:28;17.52;;;4.90;;
70010;SDS011;59543;37.950;-122.338;2022-09-24T02:24:59;27.77;;;5.40;;
70010;SDS011;59543;37.950;-122.338;2022-09-24T02:27:29;22.15;;;5.82;;
70010;SDS011;59543;37.950;-122.338;2022-09-24T02:29:56;20.15;;;5.25;;
70010;SDS011;59543;37.950;-122.338;2022-09-24T02:32:25;18.77;;;5.10;;
70010;SDS011;59543;37.950;-122.338;2022-09-24T02:34:56;17.77;;;5.03;;
70010;SDS011;59543;37.950;-122.338;2022-09-24T02:37:26;20.67;;;5.13;;
70010;SDS011;59543;37.950;-122.338;2022-09-24T02:39:53;16.73;;;5.18;;
70010;SDS011;59543;37.950;-122.338;2022-09-24T02:42:20;19.35;;;5.00;;
70010;SDS011;59543;37.950;-122.338;2022-09-24T02:44:47;19.60;;;4.80;;
70010;SDS011;59543;37.950;-122.338;2022-09-24T02:47:14;18.08;;;5.50;;
70010;SDS011;59543;37.950;-122.338;2022-09-24T02:49:40;18.65;;;5.50;;
70010;SDS011;59543;37.950;-122.338;2022-09-24T02:52:07;19.67;;;5.35;;
70010;SDS011;59543;37.950;-122.338;2022-09-24T02:54:34;16.17;;;4.97;;
70010;SDS011;59543;37.950;-122.338;2022-09-24T02:57:00;18.42;;;5.13;;
70010;SDS011;59543;37.950;-122.338;2022-09-24T02:59:26;19.40;;;5.20;;
70010;SDS011;59543;37.950;-122.338;2022-09-24T03:01:53;16.55;;;5.32;;
70010;SDS011;59543;37.950;-122.338;2022-09-24T03:04:19;19.30;;;4.50;;
70010;SDS011;59543;37.950;-122.338;2022-09-24T03:06:46;22.75;;;5.57;;
70010;SDS011;59543;37.950;-122.338;2022-09-24T03:09:12;17.95;;;5.15;;
70010;SDS011;59543;37.950;-122.338;2022-09-24T03:11:39;27.63;;;6.25;;
70010;SDS011;59543;37.950;-122.338;2022-09-24T03:14:05;20.48;;;5.35;;
70010;SDS011;59543;37.950;-122.338;2022-09-24T03:16:31;19.45;;;5.50;;
70010;SDS011;59543;37.950;-122.338;2022-09-24T03:18:58;19.00;;;5.57;;
70010;SDS011;59543;37.950;-122.338;2022-09-24T03:21:24;21.90;;;4.90;;
70010;SDS011;59543;37.950;-122.338;2022-09-24T03:23:50;21.35;;;5.70;;
70010;SDS011;59543;37.950;-122.338;2022-09-24T03:26:17;18.95;;;5.30;;
70010;SDS011;59543;37.950;-122.338;2022-09-24T03:28:43;17.70;;;5.18;;
70010;SDS011;59543;37.950;-122.338;2022-09-24T03:31:10;18.38;;;5.90;;
70010;SDS011;59543;37.950;-122.338;2022-09-24T03:33:37;26.10;;;6.10;;
70010;SDS011;59543;37.950;-122.338;2022-09-24T03:36:12;20.92;;;5.68;;
70010;SDS011;59543;37.950;-122.338;2022-09-24T03:38:40;22.40;;;5.88;;
70010;SDS011;59543;37.950;-122.338;2022-09-24T03:41:08;22.13;;;5.97;;
70010;SDS011;59543;37.950;-122.338;2022-09-24T03:43:35;24.17;;;5.50;;
70010;SDS011;59543;37.950;-122.338;2022-09-24T03:46:02;22.10;;;6.38;;
70010;SDS011;59543;37.950;-122.338;2022-09-24T03:48:31;19.48;;;5.75;;
70010;SDS011;59543;37.950;-122.338;2022-09-24T03:51:09;17.98;;;5.38;;
70010;SDS011;59543;37.950;-122.338;2022-09-24T03:53:37;18.42;;;5.47;;
70010;SDS011;59543;37.950;-122.338;2022-09-24T03:56:04;25.20;;;6.32;;
70010;SDS011;59543;37.950;-122.338;2022-09-24T03:58:32;25.60;;;5.80;;
70010;SDS011;59543;37.950;-122.338;2022-09-24T04:01:03;20.70;;;5.80;;
70010;SDS011;59543;37.950;-122.338;2022-09-24T04:03:33;19.45;;;5.68;;
70010;SDS011;59543;37.950;-122.338;2022-09-24T04:06:00;22.35;;;6.25;;
70010;SDS011;59543;37.950;-122.338;2022-09-24T04:08:27;23.38;;;5.82;;
70010;SDS011;59543;37.950;-122.338;2022-09-24T04:10:53;17.27;;;5.30;;
70010;SDS011;59543;37.950;-122.338;2022-09-24T04:13:19;19.98;;;5.45;;
70010;SDS011;59543;37.950;-122.338;2022-09-24T04:15:46;20.17;;;5.20;;
70010;SDS011;59543;37.950;-122.338;2022-09-24T04:18:14;25.73;;;5.90;;
70010;SDS011;59543;37.950;-122.338;2022-09-24T04:20:41;23.90;;;6.20;;
70010;SDS011;59543;37.950;-122.338;2022-09-24T04:23:08;24.00;;;5.85;;
70010;SDS011;59543;37.950;-122.338;2022-09-24T04:25:35;20.40;;;5.97;;
70010;SDS011;59543;37.950;-122.338;2022-09-24T04:28:03;18.02;;;5.53;;
70010;SDS011;59543;37.950;-122.338;2022-09-24T04:30:31;15.35;;;5.50;;
70010;SDS011;59543;37.950;-122.338;2022-09-24T04:32:59;18.65;;;5.93;;
70010;SDS011;59543;37.950;-122.338;2022-09-24T04:35:27;16.30;;;5.55;;
70010;SDS011;59543;37.950;-122.338;2022-09-24T04:37:55;18.10;;;5.82;;
70010;SDS011;59543;37.950;-122.338;2022-09-24T04:40:22;23.63;;;5.72;;
70010;SDS011;59543;37.950;-122.338;2022-09-24T04:42:48;17.83;;;5.70;;
70010;SDS011;59543;37.950;-122.338;2022-09-24T04:45:14;26.02;;;6.38;;
70010;SDS011;59543;37.950;-122.338;2022-09-24T04:47:43;23.40;;;6.68;;
70010;SDS011;59543;37.950;-122.338;2022-09-24T04:50:12;21.83;;;6.05;;
70010;SDS011;59543;37.950;-122.338;2022-09-24T04:52:38;22.10;;;6.15;;
70010;SDS011;59543;37.950;-122.338;2022-09-24T04:55:04;20.40;;;5.90;;
70010;SDS011;59543;37.950;-122.338;2022-09-24T04:57:31;16.52;;;5.10;;
70010;SDS011;59543;37.950;-122.338;2022-09-24T05:00:04;19.40;;;5.15;;
70010;SDS011;59543;37.950;-122.338;2022-09-24T05:02:33;18.75;;;5.47;;
70010;SDS011;59543;37.950;-122.338;2022-09-24T05:04:59;23.20;;;5.78;;
70010;SDS011;59543;37.950;-122.338;2022-09-24T05:07:26;22.75;;;5.97;;
70010;SDS011;59543;37.950;-122.338;2022-09-24T05:09:52;15.13;;;4.88;;
70010;SDS011;59543;37.950;-122.338;2022-09-24T05:12:18;20.33;;;5.63;;
70010;SDS011;59543;37.950;-122.338;2022-09-24T05:14:45;22.92;;;6.10;;
70010;SDS011;59543;37.950;-122.338;2022-09-24T05:17:12;31.38;;;6.22;;
70010;SDS011;59543;37.950;-122.338;2022-09-24T05:19:39;19.83;;;5.88;;
70010;SDS011;59543;37.950;-122.338;2022-09-24T05:22:05;16.10;;;5.70;;
70010;SDS011;59543;37.950;-122.338;2022-09-24T05:24:31;25.77;;;6.38;;
70010;SDS011;59543;37.950;-122.338;2022-09-24T05:26:58;23.25;;;6.22;;
70010;SDS011;59543;37.950;-122.338;2022-09-24T05:29:40;17.98;;;5.82;;
70010;SDS011;59543;37.950;-122.338;2022-09-24T05:32:12;17.70;;;5.57;;
70010;SDS011;59543;37.950;-122.338;2022-09-24T05:34:41;17.48;;;5.45;;
70010;SDS011;59543;37.950;-122.338;2022-09-24T05:37:08;20.38;;;5.68;;
70010;SDS011;59543;37.950;-122.338;2022-09-24T05:39:35;17.60;;;5.25;;
70010;SDS011;59543;37.950;-122.338;2022-09-24T05:42:02;18.23;;;5.53;;
70010;SDS011;59543;37.950;-122.338;2022-09-24T05:44:29;12.52;;;5.20;;
70010;SDS011;59543;37.950;-122.338;2022-09-24T05:46:56;18.48;;;5.90;;
70010;SDS011;59543;37.950;-122.338;2022-09-24T05:49:22;16.20;;;4.82;;
70010;SDS011;59543;37.950;-122.338;2022-09-24T05:51:49;14.13;;;4.93;;
70010;SDS011;59543;37.950;-122.338;2022-09-24T05:54:16;18.75;;;5.55;;
70010;SDS011;59543;37.950;-122.338;2022-09-24T05:56:42;19.52;;;5.93;;
70010;SDS011;59543;37.950;-122.338;2022-09-24T05:59:10;20.20;;;6.35;;
70010;SDS011;59543;37.950;-122.338;2022-09-24T06:01:37;19.50;;;5.68;;
70010;SDS011;59543;37.950;-122.338;2022-09-24T06:04:03;18.25;;;6.30;;
70010;SDS011;59543;37.950;-122.338;2022-09-24T06:06:29;21.13;;;6.10;;
70010;SDS011;59543;37.950;-122.338;2022-09-24T06:08:56;20.55;;;5.88;;
70010;SDS011;59543;37.950;-122.338;2022-09-24T06:11:22;19.83;;;5.32;;
70010;SDS011;59543;37.950;-122.338;2022-09-24T06:13:49;19.90;;;5.82;;
70010;SDS011;59543;37.950;-122.338;2022-09-24T06:16:15;18.27;;;5.55;;
70010;SDS011;59543;37.950;-122.338;2022-09-24T06:18:42;14.65;;;5.25;;
70010;SDS011;59543;37.950;-122.338;2022-09-24T06:21:10;19.52;;;5.20;;
70010;SDS011;59543;37.950;-122.338;2022-09-24T06:23:38;18.73;;;5.40;;
70010;SDS011;59543;37.950;-122.338;2022-09-24T06:26:05;20.25;;;5.80;;
70010;SDS011;59543;37.950;-122.338;2022-09-24T06:28:35;18.20;;;5.57;;
70010;SDS011;59543;37.950;-122.338;2022-09-24T06:31:02;30.65;;;6.82;;
70010;SDS011;59543;37.950;-122.338;2022-09-24T06:33:28;23.40;;;6.75;;
70010;SDS011;59543;37.950;-122.338;2022-09-24T06:35:58;25.42;;;6.03;;
70010;SDS011;59543;37.950;-122.338;2022-09-24T06:38:25;22.30;;;6.10;;
70010;SDS011;59543;37.950;-122.338;2022-09-24T06:40:51;25.77;;;6.72;;
70010;SDS011;59543;37.950;-122.338;2022-09-24T06:43:18;25.55;;;6.95;;
70010;SDS011;59543;37.950;-122.338;2022-09-24T06:45:44;29.85;;;7.88;;
70010;SDS011;59543;37.950;-122.338;2022-09-24T06:48:11;25.95;;;7.50;;
70010;SDS011;59543;37.950;-122.338;2022-09-24T06:50:39;32.15;;;8.00;;
70010;SDS011;59543;37.950;-122.338;2022-09-24T06:53:08;26.88;;;7.55;;
70010;SDS011;59543;37.950;-122.338;2022-09-24T06:55:36;29.00;;;7.18;;
70010;SDS011;59543;37.950;-122.338;2022-09-24T07:00:40;27.67;;;6.45;;
70010;SDS011;59543;37.950;-122.338;2022-09-24T07:03:14;36.67;;;6.07;;
70010;SDS011;59543;37.950;-122.338;2022-09-24T07:05:40;22.42;;;6.30;;
70010;SDS011;59543;37.950;-122.338;2022-09-24T07:08:07;25.45;;;6.38;;
70010;SDS011;59543;37.950;-122.338;2022-09-24T07:10:33;18.40;;;6.13;;
70010;SDS011;59543;37.950;-122.338;2022-09-24T07:12:59;28.90;;;6.75;;
70010;SDS011;59543;37.950;-122.338;2022-09-24T07:15:25;32.10;;;6.60;;
70010;SDS011;59543;37.950;-122.338;2022-09-24T07:17:55;21.08;;;5.97;;
70010;SDS011;59543;37.950;-122.338;2022-09-24T07:20:22;22.17;;;6.28;;
70010;SDS011;59543;37.950;-122.338;2022-09-24T07:22:49;30.02;;;7.13;;
70010;SDS011;59543;37.950;-122.338;2022-09-24T07:25:15;30.20;;;6.30;;
70010;SDS011;59543;37.950;-122.338;2022-09-24T07:27:41;29.63;;;6.20;;
70010;SDS011;59543;37.950;-122.338;2022-09-24T07:30:08;27.98;;;6.78;;
70010;SDS011;59543;37.950;-122.338;2022-09-24T07:32:34;23.95;;;6.40;;
70010;SDS011;59543;37.950;-122.338;2022-09-24T07:35:01;23.73;;;6.45;;
70010;SDS011;59543;37.950;-122.338;2022-09-24T07:37:27;25.40;;;6.25;;
70010;SDS011;59543;37.950;-122.338;2022-09-24T07:39:57;23.88;;;6.70;;
70010;SDS011;59543;37.950;-122.338;2022-09-24T07:42:23;27.75;;;6.85;;
70010;SDS011;59543;37.950;-122.338;2022-09-24T07:44:50;19.35;;;5.95;;
70010;SDS011;59543;37.950;-122.338;2022-09-24T07:47:16;23.23;;;6.20;;
70010;SDS011;59543;37.950;-122.338;2022-09-24T07:49:43;22.08;;;6.28;;
70010;SDS011;59543;37.950;-122.338;2022-09-24T07:52:09;21.13;;;5.57;;
70010;SDS011;59543;37.950;-122.338;2022-09-24T07:54:36;20.83;;;6.00;;
70010;SDS011;59543;37.950;-122.338;2022-09-24T07:57:07;23.02;;;6.10;;
70010;SDS011;59543;37.950;-122.338;2022-09-24T07:59:37;24.30;;;5.63;;
70010;SDS011;59543;37.950;-122.338;2022-09-24T08:02:13;23.13;;;6.45;;
70010;SDS011;59543;37.950;-122.338;2022-09-24T08:04:41;21.63;;;5.72;;
70010;SDS011;59543;37.950;-122.338;2022-09-24T08:07:09;14.93;;;3.20;;
70010;SDS011;59543;37.950;-122.338;2022-09-24T08:09:36;9.20;;;2.90;;
70010;SDS011;59543;37.950;-122.338;2022-09-24T08:12:03;9.77;;;2.63;;
70010;SDS011;59543;37.950;-122.338;2022-09-24T08:14:29;5.55;;;2.05;;
70010;SDS011;59543;37.950;-122.338;2022-09-24T08:16:55;6.72;;;2.22;;
70010;SDS011;59543;37.950;-122.338;2022-09-24T08:19:22;5.82;;;1.85;;
70010;SDS011;59543;37.950;-122.338;2022-09-24T08:21:48;4.68;;;1.70;;
70010;SDS011;59543;37.950;-122.338;2022-09-24T08:24:14;4.43;;;1.40;;
70010;SDS011;59543;37.950;-122.338;2022-09-24T08:26:41;4.38;;;1.50;;
70010;SDS011;59543;37.950;-122.338;2022-09-24T08:29:07;3.60;;;1.45;;
70010;SDS011;59543;37.950;-122.338;2022-09-24T08:31:34;3.83;;;1.30;;
70010;SDS011;59543;37.950;-122.338;2022-09-24T08:34:01;3.45;;;1.20;;
70010;SDS011;59543;37.950;-122.338;2022-09-24T08:36:27;4.88;;;1.42;;
70010;SDS011;59543;37.950;-122.338;2022-09-24T08:38:54;1.67;;;1.17;;
70010;SDS011;59543;37.950;-122.338;2022-09-24T08:46:37;4.05;;;1.20;;
70010;SDS011;59543;37.950;-122.338;2022-09-24T08:49:29;1.73;;;1.20;;
70010;SDS011;59543;37.950;-122.338;2022-09-24T08:59:46;1.88;;;1.05;;
70010;SDS011;59543;37.950;-122.338;2022-09-24T09:02:37;3.47;;;1.23;;
70010;SDS011;59543;37.950;-122.338;2022-09-24T09:11:04;3.50;;;1.10;;
70010;SDS011;59543;37.950;-122.338;2022-09-24T09:13:41;3.85;;;1.30;;
70010;SDS011;59543;37.950;-122.338;2022-09-24T09:16:28;3.40;;;1.27;;
70010;SDS011;59543;37.950;-122.338;2022-09-24T09:19:03;4.40;;;1.50;;
70010;SDS011;59543;37.950;-122.338;2022-09-24T09:21:38;3.63;;;1.52;;
70010;SDS011;59543;37.950;-122.338;2022-09-24T09:24:11;5.15;;;1.30;;
70010;SDS011;59543;37.950;-122.338;2022-09-24T09:26:46;4.53;;;1.35;;
70010;SDS011;59543;37.950;-122.338;2022-09-24T09:29:15;6.53;;;1.55;;
70010;SDS011;59543;37.950;-122.338;2022-09-24T09:40:24;4.53;;;1.20;;
70010;SDS011;59543;37.950;-122.338;2022-09-24T09:43:04;3.75;;;1.30;;
70010;SDS011;59543;37.950;-122.338;2022-09-24T09:45:43;2.50;;;1.20;;
70010;SDS011;59543;37.950;-122.338;2022-09-24T09:48:32;2.35;;;1.13;;
70010;SDS011;59543;37.950;-122.338;2022-09-24T09:51:09;5.20;;;1.20;;
70010;SDS011;59543;37.950;-122.338;2022-09-24T09:54:01;4.75;;;1.25;;
70010;SDS011;59543;37.950;-122.338;2022-09-24T09:56:40;2.63;;;1.10;;
70010;SDS011;59543;37.950;-122.338;2022-09-24T10:01:39;2.80;;;0.93;;
70010;SDS011;59543;37.950;-122.338;2022-09-24T10:07:12;2.38;;;1.20;;
70010;SDS011;59543;37.950;-122.338;2022-09-24T10:09:41;2.83;;;1.05;;
70010;SDS011;59543;37.950;-122.338;2022-09-24T10:12:18;5.93;;;1.42;;
70010;SDS011;59543;37.950;-122.338;2022-09-24T10:14:59;2.35;;;1.10;;
70010;SDS011;59543;37.950;-122.338;2022-09-24T10:17:37;3.08;;;1.25;;
70010;SDS011;59543;37.950;-122.338;2022-09-24T10:20:08;3.08;;;1.25;;
70010;SDS011;59543;37.950;-122.338;2022-09-24T10:22:55;2.67;;;1.00;;
70010;SDS011;59543;37.950;-122.338;2022-09-24T10:25:32;3.53;;;1.10;;
70010;SDS011;59543;37.950;-122.338;2022-09-24T10:28:01;1.73;;;0.98;;
70010;SDS011;59543;37.950;-122.338;2022-09-24T10:30:57;3.55;;;1.10;;
70010;SDS011;59543;37.950;-122.338;2022-09-24T10:33:35;1.35;;;1.00;;
70010;SDS011;59543;37.950;-122.338;2022-09-24T10:36:04;2.08;;;1.00;;
70010;SDS011;59543;37.950;-122.338;2022-09-24T10:38:32;2.75;;;1.20;;
70010;SDS011;59543;37.950;-122.338;2022-09-24T10:40:59;3.22;;;1.30;;
70010;SDS011;59543;37.950;-122.338;2022-09-24T10:43:25;2.70;;;0.88;;
70010;SDS011;59543;37.950;-122.338;2022-09-24T10:51:16;2.00;;;1.30;;
70010;SDS011;59543;37.950;-122.338;2022-09-24T10:59:10;3.80;;;1.33;;
70010;SDS011;59543;37.950;-122.338;2022-09-24T11:01:44;2.53;;;1.27;;
70010;SDS011;59543;37.950;-122.338;2022-09-24T11:04:58;2.28;;;1.10;;
70010;SDS011;59543;37.950;-122.338;2022-09-24T11:24:34;3.53;;;1.38;;
70010;SDS011;59543;37.950;-122.338;2022-09-24T11:30:05;4.57;;;1.50;;
70010;SDS011;59543;37.950;-122.338;2022-09-24T11:38:15;7.25;;;1.55;;
70010;SDS011;59543;37.950;-122.338;2022-09-24T11:41:09;4.15;;;1.85;;
70010;SDS011;59543;37.950;-122.338;2022-09-24T11:43:44;4.93;;;1.58;;
70010;SDS011;59543;37.950;-122.338;2022-09-24T11:46:46;5.10;;;1.55;;
70010;SDS011;59543;37.950;-122.338;2022-09-24T11:50:03;3.58;;;1.70;;
70010;SDS011;59543;37.950;-122.338;2022-09-24T11:52:51;3.58;;;1.67;;
70010;SDS011;59543;37.950;-122.338;2022-09-24T11:55:26;3.15;;;1.58;;
70010;SDS011;59543;37.950;-122.338;2022-09-24T11:58:34;3.75;;;1.42;;
70010;SDS011;59543;37.950;-122.338;2022-09-24T12:01:30;3.70;;;1.70;;
70010;SDS011;59543;37.950;-122.338;2022-09-24T12:06:40;5.60;;;1.88;;
70010;SDS011;59543;37.950;-122.338;2022-09-24T12:11:52;5.50;;;1.65;;
70010;SDS011;59543;37.950;-122.338;2022-09-24T12:20:07;3.42;;;1.67;;
70010;SDS011;59543;37.950;-122.338;2022-09-24T12:22:42;2.42;;;1.60;;
70010;SDS011;59543;37.950;-122.338;2022-09-24T12:25:11;4.05;;;1.65;;
70010;SDS011;59543;37.950;-122.338;2022-09-24T12:27:38;5.95;;;2.00;;
70010;SDS011;59543;37.950;-122.338;2022-09-24T12:33:27;6.18;;;1.70;;
70010;SDS011;59543;37.950;-122.338;2022-09-24T12:35:58;6.70;;;1.95;;
70010;SDS011;59543;37.950;-122.338;2022-09-24T12:38:37;6.30;;;2.03;;
70010;SDS011;59543;37.950;-122.338;2022-09-24T12:41:22;5.47;;;1.92;;
70010;SDS011;59543;37.950;-122.338;2022-09-24T12:46:19;4.30;;;1.95;;
70010;SDS011;59543;37.950;-122.338;2022-09-24T12:48:48;2.63;;;1.63;;
70010;SDS011;59543;37.950;-122.338;2022-09-24T12:51:16;4.30;;;1.77;;
70010;SDS011;59543;37.950;-122.338;2022-09-24T12:53:57;4.03;;;1.90;;
70010;SDS011;59543;37.950;-122.338;2022-09-24T12:56:29;2.03;;;1.30;;
70010;SDS011;59543;37.950;-122.338;2022-09-24T12:58:56;3.33;;;1.77;;
70010;SDS011;59543;37.950;-122.338;2022-09-24T13:08:57;3.47;;;1.88;;
70010;SDS011;59543;37.950;-122.338;2022-09-24T13:11:31;4.50;;;2.00;;
70010;SDS011;59543;37.950;-122.338;2022-09-24T13:16:43;9.18;;;2.05;;
70010;SDS011;59543;37.950;-122.338;2022-09-24T13:21:59;2.08;;;1.60;;
70010;SDS011;59543;37.950;-122.338;2022-09-24T13:24:27;4.15;;;1.60;;
70010;SDS011;59543;37.950;-122.338;2022-09-24T13:27:16;3.63;;;1.90;;
70010;SDS011;59543;37.950;-122.338;2022-09-24T13:32:37;4.78;;;2.05;;
70010;SDS011;59543;37.950;-122.338;2022-09-24T13:35:33;3.25;;;1.80;;
70010;SDS011;59543;37.950;-122.338;2022-09-24T13:38:12;4.25;;;1.70;;
70010;SDS011;59543;37.950;-122.338;2022-09-24T13:40:52;6.18;;;1.75;;
70010;SDS011;59543;37.950;-122.338;2022-09-24T13:43:34;2.97;;;1.90;;
70010;SDS011;59543;37.950;-122.338;2022-09-24T13:46:17;4.68;;;1.80;;
70010;SDS011;59543;37.950;-122.338;2022-09-24T13:48:49;5.32;;;1.65;;
70010;SDS011;59543;37.950;-122.338;2022-09-24T13:51:26;5.43;;;2.10;;
70010;SDS011;59543;37.950;-122.338;2022-09-24T13:54:03;4.97;;;1.75;;
70010;SDS011;59543;37.950;-122.338;2022-09-24T13:56:37;4.13;;;1.70;;
70010;SDS011;59543;37.950;-122.338;2022-09-24T13:59:04;4.15;;;1.98;;
70010;SDS011;59543;37.950;-122.338;2022-09-24T14:01:37;5.20;;;1.92;;
70010;SDS011;59543;37.950;-122.338;2022-09-24T14:04:12;3.63;;;1.90;;
70010;SDS011;59543;37.950;-122.338;2022-09-24T14:06:42;4.57;;;1.60;;
70010;SDS011;59543;37.950;-122.338;2022-09-24T14:09:30;3.58;;;1.90;;
70010;SDS011;59543;37.950;-122.338;2022-09-24T14:12:10;5.32;;;1.55;;
70010;SDS011;59543;37.950;-122.338;2022-09-24T14:14:43;7.97;;;2.08;;
70010;SDS011;59543;37.950;-122.338;2022-09-24T14:17:13;4.55;;;2.08;;
70010;SDS011;59543;37.950;-122.338;2022-09-24T14:19:40;3.15;;;1.52;;
70010;SDS011;59543;37.950;-122.338;2022-09-24T14:22:18;4.53;;;1.92;;
70010;SDS011;59543;37.950;-122.338;2022-09-24T14:24:53;4.28;;;2.20;;
70010;SDS011;59543;37.950;-122.338;2022-09-24T14:27:26;3.47;;;1.75;;
70010;SDS011;59543;37.950;-122.338;2022-09-24T14:30:04;5.88;;;2.03;;
70010;SDS011;59543;37.950;-122.338;2022-09-24T14:32:33;5.70;;;1.75;;
70010;SDS011;59543;37.950;-122.338;2022-09-24T14:35:07;6.63;;;2.00;;
70010;SDS011;59543;37.950;-122.338;2022-09-24T14:37:52;10.60;;;2.30;;
70010;SDS011;59543;37.950;-122.338;2022-09-24T14:40:22;5.07;;;2.45;;
70010;SDS011;59543;37.950;-122.338;2022-09-24T14:42:54;4.28;;;2.08;;
70010;SDS011;59543;37.950;-122.338;2022-09-24T14:45:30;6.40;;;2.30;;
70010;SDS011;59543;37.950;-122.338;2022-09-24T14:48:04;4.68;;;2.10;;
70010;SDS011;59543;37.950;-122.338;2022-09-24T14:50:42;4.40;;;2.22;;
70010;SDS011;59543;37.950;-122.338;2022-09-24T14:53:55;7.03;;;2.10;;
70010;SDS011;59543;37.950;-122.338;2022-09-24T14:55:59;3.80;;;2.13;;
70010;SDS011;59543;37.950;-122.338;2022-09-24T15:01:16;14.23;;;2.47;;
70010;SDS011;59543;37.950;-122.338;2022-09-24T15:03:52;9.10;;;2.10;;
70010;SDS011;59543;37.950;-122.338;2022-09-24T15:06:28;10.43;;;2.67;;
70010;SDS011;59543;37.950;-122.338;2022-09-24T15:09:00;27.25;;;2.60;;
70010;SDS011;59543;37.950;-122.338;2022-09-24T15:11:46;10.13;;;2.58;;
70010;SDS011;59543;37.950;-122.338;2022-09-24T15:16:42;9.00;;;2.70;;
70010;SDS011;59543;37.950;-122.338;2022-09-24T15:21:42;7.82;;;2.75;;
70010;SDS011;59543;37.950;-122.338;2022-09-24T15:24:09;5.95;;;2.10;;
70010;SDS011;59543;37.950;-122.338;2022-09-24T15:26:37;5.47;;;2.30;;
70010;SDS011;59543;37.950;-122.338;2022-09-24T15:29:08;4.78;;;1.70;;
70010;SDS011;59543;37.950;-122.338;2022-09-24T15:31:49;4.05;;;1.85;;
70010;SDS011;59543;37.950;-122.338;2022-09-24T15:34:15;8.00;;;2.20;;
70010;SDS011;59543;37.950;-122.338;2022-09-24T15:36:42;5.55;;;2.05;;
70010;SDS011;59543;37.950;-122.338;2022-09-24T15:39:08;9.32;;;2.10;;
70010;SDS011;59543;37.950;-122.338;2022-09-24T15:41:35;2.25;;;1.55;;
70010;SDS011;59543;37.950;-122.338;2022-09-24T15:44:01;6.97;;;1.95;;
70010;SDS011;59543;37.950;-122.338;2022-09-24T15:46:27;5.25;;;2.17;;
70010;SDS011;59543;37.950;-122.338;2022-09-24T15:48:54;5.10;;;2.33;;
70010;SDS011;59543;37.950;-122.338;2022-09-24T15:51:21;8.85;;;2.50;;
70010;SDS011;59543;37.950;-122.338;2022-09-24T15:53:48;5.25;;;2.10;;
70010;SDS011;59543;37.950;-122.338;2022-09-24T15:56:15;7.93;;;2.20;;
70010;SDS011;59543;37.950;-122.338;2022-09-24T15:58:42;5.25;;;2.25;;
70010;SDS011;59543;37.950;-122.338;2022-09-24T16:01:10;13.13;;;2.55;;
70010;SDS011;59543;37.950;-122.338;2022-09-24T16:03:41;6.13;;;1.90;;
70010;SDS011;59543;37.950;-122.338;2022-09-24T16:06:09;6.30;;;1.98;;
70010;SDS011;59543;37.950;-122.338;2022-09-24T16:08:36;5.75;;;2.03;;
70010;SDS011;59543;37.950;-122.338;2022-09-24T16:11:02;5.85;;;2.40;;
70010;SDS011;59543;37.950;-122.338;2022-09-24T16:13:30;5.45;;;1.98;;
70010;SDS011;59543;37.950;-122.338;2022-09-24T16:15:56;7.35;;;2.20;;
70010;SDS011;59543;37.950;-122.338;2022-09-24T16:18:22;5.32;;;2.08;;
70010;SDS011;59543;37.950;-122.338;2022-09-24T16:20:50;7.28;;;2.95;;
70010;SDS011;59543;37.950;-122.338;2022-09-24T16:23:17;11.00;;;3.30;;
70010;SDS011;59543;37.950;-122.338;2022-09-24T16:25:53;8.75;;;3.80;;
70010;SDS011;59543;37.950;-122.338;2022-09-24T16:28:21;10.88;;;4.53;;
70010;SDS011;59543;37.950;-122.338;2022-09-24T16:30:48;13.82;;;3.70;;
70010;SDS011;59543;37.950;-122.338;2022-09-24T16:33:14;10.38;;;3.40;;
70010;SDS011;59543;37.950;-122.338;2022-09-24T16:35:40;10.98;;;3.42;;